createdAt,value
2017-04-30T00:00:11.229Z,1001.55
2017-04-30T00:00:51.749Z,1001.47
2017-04-30T00:01:32.269Z,1001.49
2017-04-30T00:02:12.789Z,1001.49
2017-04-30T00:02:53.319Z,1001.55
2017-04-30T00:03:33.834Z,1001.48
2017-04-30T00:04:14.367Z,1001.51
2017-04-30T00:04:54.864Z,1001.49
2017-04-30T00:05:35.377Z,1001.5
2017-04-30T00:06:15.892Z,1001.49
2017-04-30T00:06:56.713Z,1001.49
2017-04-30T00:07:36.960Z,1001.46
2017-04-30T00:08:17.498Z,1001.47
2017-04-30T00:08:58.066Z,1001.43
2017-04-30T00:09:38.588Z,1001.43
2017-04-30T00:10:19.118Z,1001.4
2017-04-30T00:10:59.599Z,1001.43
2017-04-30T00:11:40.124Z,1001.41
2017-04-30T00:12:20.662Z,1001.45
2017-04-30T00:13:01.167Z,1001.45
2017-04-30T00:13:41.703Z,1001.47
2017-04-30T00:14:22.229Z,1001.45
2017-04-30T00:15:02.760Z,1001.45
2017-04-30T00:15:43.292Z,1001.4
2017-04-30T00:16:23.812Z,1001.4
2017-04-30T00:17:04.329Z,1001.43
2017-04-30T00:17:44.863Z,1001.44
2017-04-30T00:18:25.393Z,1001.44
2017-04-30T00:19:05.901Z,1001.45
2017-04-30T00:19:46.416Z,1001.41
2017-04-30T00:20:26.946Z,1001.42
2017-04-30T00:21:07.461Z,1001.43
2017-04-30T00:21:47.982Z,1001.37
2017-04-30T00:22:28.517Z,1001.39
2017-04-30T00:23:09.034Z,1001.44
2017-04-30T00:23:49.554Z,1001.42
2017-04-30T00:24:30.069Z,1001.41
2017-04-30T00:25:10.581Z,1001.36
2017-04-30T00:25:51.101Z,1001.45
2017-04-30T00:26:31.624Z,1001.38
2017-04-30T00:27:12.143Z,1001.38
2017-04-30T00:27:52.655Z,1001.37
2017-04-30T00:28:33.179Z,1001.4
2017-04-30T00:29:13.704Z,1001.37
2017-04-30T00:29:54.225Z,1001.42
2017-04-30T00:30:34.756Z,1001.4
2017-04-30T00:31:15.270Z,1001.41
2017-04-30T00:31:55.784Z,1001.41
2017-04-30T00:32:36.304Z,1001.39
2017-04-30T00:33:16.836Z,1001.37
2017-04-30T00:33:57.350Z,1001.39
2017-04-30T00:34:37.877Z,1001.4
2017-04-30T00:35:18.395Z,1001.39
2017-04-30T00:35:59.022Z,1001.41
2017-04-30T00:36:39.530Z,1001.42
2017-04-30T00:37:20.061Z,1001.39
2017-04-30T00:38:00.682Z,1001.39
2017-04-30T00:38:41.210Z,1001.41
2017-04-30T00:39:21.744Z,1001.4
2017-04-30T00:40:02.270Z,1001.4
2017-04-30T00:40:42.776Z,1001.38
2017-04-30T00:41:23.301Z,1001.42
2017-04-30T00:42:03.813Z,1001.39
2017-04-30T00:42:44.327Z,1001.38
2017-04-30T00:43:24.861Z,1001.41
2017-04-30T00:44:05.383Z,1001.41
2017-04-30T00:44:45.889Z,1001.39
2017-04-30T00:45:26.412Z,1001.4
2017-04-30T00:46:06.942Z,1001.37
2017-04-30T00:46:47.451Z,1001.36
2017-04-30T00:47:27.964Z,1001.36
2017-04-30T00:48:08.492Z,1001.39
2017-04-30T00:48:49.022Z,1001.37
2017-04-30T00:49:29.533Z,1001.4
2017-04-30T00:50:10.048Z,1001.39
2017-04-30T00:50:50.568Z,1001.39
2017-04-30T00:51:31.092Z,1001.41
2017-04-30T00:52:11.600Z,1001.41
2017-04-30T00:52:52.124Z,1001.41
2017-04-30T00:53:32.661Z,1001.41
2017-04-30T00:54:13.163Z,1001.4
2017-04-30T00:54:53.701Z,1001.4
2017-04-30T00:55:34.233Z,1001.39
2017-04-30T00:56:14.743Z,1001.44
2017-04-30T00:56:55.266Z,1001.43
2017-04-30T00:57:35.788Z,1001.38
2017-04-30T00:58:16.303Z,1001.37
2017-04-30T00:58:56.819Z,1001.35
2017-04-30T00:59:37.337Z,1001.46
2017-04-30T01:00:17.872Z,1001.39
2017-04-30T01:00:58.423Z,1001.44
2017-04-30T01:01:38.919Z,1001.38
2017-04-30T01:02:19.453Z,1001.4
2017-04-30T01:02:59.991Z,1001.44
2017-04-30T01:03:40.507Z,1001.42
2017-04-30T01:04:21.009Z,1001.39
2017-04-30T01:05:01.523Z,1001.39
2017-04-30T01:05:42.042Z,1001.39
2017-04-30T01:06:22.560Z,1001.38
2017-04-30T01:07:03.092Z,1001.38
2017-04-30T01:07:43.627Z,1001.34
2017-04-30T01:08:24.148Z,1001.32
2017-04-30T01:09:04.662Z,1001.32
2017-04-30T01:09:45.188Z,1001.35
2017-04-30T01:10:25.707Z,1001.33
2017-04-30T01:11:06.219Z,1001.37
2017-04-30T01:11:46.754Z,1001.38
2017-04-30T01:12:27.280Z,1001.4
2017-04-30T01:13:07.802Z,1001.38
2017-04-30T01:13:48.333Z,1001.32
2017-04-30T01:14:28.855Z,1001.33
2017-04-30T01:15:09.375Z,1001.33
2017-04-30T01:15:49.895Z,1001.29
2017-04-30T01:16:30.406Z,1001.32
2017-04-30T01:17:10.941Z,1001.36
2017-04-30T01:17:51.425Z,1001.38
2017-04-30T01:18:31.945Z,1001.39
2017-04-30T01:19:12.479Z,1001.42
2017-04-30T01:19:52.992Z,1001.45
2017-04-30T01:20:33.531Z,1001.41
2017-04-30T01:21:14.093Z,1001.43
2017-04-30T01:21:54.606Z,1001.45
2017-04-30T01:22:35.120Z,1001.42
2017-04-30T01:23:15.597Z,1001.42
2017-04-30T01:23:56.070Z,1001.44
2017-04-30T01:24:36.612Z,1001.4
2017-04-30T01:25:17.130Z,1001.39
2017-04-30T01:25:57.677Z,1001.4
2017-04-30T01:26:38.208Z,1001.38
2017-04-30T01:27:18.728Z,1001.38
2017-04-30T01:27:59.211Z,1001.39
2017-04-30T01:28:39.715Z,1001.41
2017-04-30T01:29:20.211Z,1001.44
2017-04-30T01:30:00.726Z,1001.41
2017-04-30T01:30:41.226Z,1001.46
2017-04-30T01:31:21.825Z,1001.45
2017-04-30T01:32:02.246Z,1001.45
2017-04-30T01:32:42.764Z,1001.48
2017-04-30T01:33:23.276Z,1001.44
2017-04-30T01:34:03.802Z,1001.43
2017-04-30T01:34:44.318Z,1001.5
2017-04-30T01:35:24.838Z,1001.46
2017-04-30T01:36:05.377Z,1001.42
2017-04-30T01:36:45.897Z,1001.39
2017-04-30T01:37:26.426Z,1001.44
2017-04-30T01:38:06.947Z,1001.47
2017-04-30T01:38:47.469Z,1001.41
2017-04-30T01:39:27.950Z,1001.43
2017-04-30T01:40:08.476Z,1001.48
2017-04-30T01:40:48.989Z,1001.45
2017-04-30T01:41:29.511Z,1001.46
2017-04-30T01:42:10.039Z,1001.49
2017-04-30T01:42:50.557Z,1001.49
2017-04-30T01:43:31.093Z,1001.48
2017-04-30T01:44:11.632Z,1001.48
2017-04-30T01:44:52.115Z,1001.54
2017-04-30T01:45:32.634Z,1001.5
2017-04-30T01:46:13.173Z,1001.49
2017-04-30T01:46:53.716Z,1001.51
2017-04-30T01:47:34.226Z,1001.52
2017-04-30T01:48:14.745Z,1001.53
2017-04-30T01:48:55.249Z,1001.59
2017-04-30T01:49:35.765Z,1001.5
2017-04-30T01:50:16.277Z,1001.52
2017-04-30T01:50:56.796Z,1001.52
2017-04-30T01:51:37.318Z,1001.57
2017-04-30T01:52:17.830Z,1001.49
2017-04-30T01:52:58.361Z,1001.56
2017-04-30T01:53:38.879Z,1001.48
2017-04-30T01:54:19.432Z,1001.48
2017-04-30T01:54:59.917Z,1001.48
2017-04-30T01:55:40.437Z,1001.52
2017-04-30T01:56:20.957Z,1001.52
2017-04-30T01:57:01.451Z,1001.52
2017-04-30T01:57:41.976Z,1001.51
2017-04-30T01:58:22.484Z,1001.52
2017-04-30T01:59:03.004Z,1001.56
2017-04-30T01:59:43.543Z,1001.54
2017-04-30T02:00:24.033Z,1001.57
2017-04-30T02:01:04.550Z,1001.54
2017-04-30T02:01:45.070Z,1001.56
2017-04-30T02:02:25.593Z,1001.51
2017-04-30T02:03:06.117Z,1001.54
2017-04-30T02:03:46.637Z,1001.6
2017-04-30T02:04:27.163Z,1001.6
2017-04-30T02:05:07.682Z,1001.56
2017-04-30T02:05:48.210Z,1001.56
2017-04-30T02:06:28.730Z,1001.58
2017-04-30T02:07:09.250Z,1001.58
2017-04-30T02:07:49.769Z,1001.58
2017-04-30T02:08:30.301Z,1001.59
2017-04-30T02:09:10.821Z,1001.54
2017-04-30T02:09:51.332Z,1001.53
2017-04-30T02:10:31.849Z,1001.53
2017-04-30T02:11:12.381Z,1001.52
2017-04-30T02:11:52.905Z,1001.55
2017-04-30T02:12:33.440Z,1001.58
2017-04-30T02:13:14.004Z,1001.52
2017-04-30T02:13:54.491Z,1001.49
2017-04-30T02:14:35.027Z,1001.53
2017-04-30T02:15:15.543Z,1001.46
2017-04-30T02:15:56.065Z,1001.47
2017-04-30T02:16:36.588Z,1001.55
2017-04-30T02:17:17.105Z,1001.47
2017-04-30T02:17:57.617Z,1001.45
2017-04-30T02:18:38.146Z,1001.48
2017-04-30T02:19:18.671Z,1001.44
2017-04-30T02:19:59.199Z,1001.43
2017-04-30T02:20:39.725Z,1001.42
2017-04-30T02:21:20.255Z,1001.46
2017-04-30T02:22:00.775Z,1001.44
2017-04-30T02:22:41.298Z,1001.48
2017-04-30T02:23:21.812Z,1001.48
2017-04-30T02:24:02.341Z,1001.45
2017-04-30T02:24:42.857Z,1001.47
2017-04-30T02:25:23.369Z,1001.44
2017-04-30T02:26:03.907Z,1001.43
2017-04-30T02:26:44.411Z,1001.45
2017-04-30T02:27:24.928Z,1001.44
2017-04-30T02:28:05.459Z,1001.45
2017-04-30T02:28:45.985Z,1001.48
2017-04-30T02:29:26.506Z,1001.47
2017-04-30T02:30:07.032Z,1001.43
2017-04-30T02:30:47.549Z,1001.44
2017-04-30T02:31:28.060Z,1001.45
2017-04-30T02:32:08.595Z,1001.42
2017-04-30T02:32:49.113Z,1001.46
2017-04-30T02:33:29.606Z,1001.42
2017-04-30T02:34:10.119Z,1001.45
2017-04-30T02:34:50.597Z,1001.41
2017-04-30T02:35:31.092Z,1001.46
2017-04-30T02:36:11.613Z,1001.45
2017-04-30T02:36:52.086Z,1001.42
2017-04-30T02:37:32.686Z,1001.41
2017-04-30T02:38:13.120Z,1001.44
2017-04-30T02:38:53.644Z,1001.45
2017-04-30T02:39:34.145Z,1001.39
2017-04-30T02:40:14.636Z,1001.43
2017-04-30T02:40:55.169Z,1001.45
2017-04-30T02:41:35.687Z,1001.46
2017-04-30T02:42:16.208Z,1001.4
2017-04-30T02:42:56.727Z,1001.46
2017-04-30T02:43:37.257Z,1001.47
2017-04-30T02:44:17.742Z,1001.44
2017-04-30T02:44:58.254Z,1001.4
2017-04-30T02:45:38.773Z,1001.4
2017-04-30T02:46:19.300Z,1001.38
2017-04-30T02:46:59.822Z,1001.38
2017-04-30T02:47:40.363Z,1001.42
2017-04-30T02:48:20.870Z,1001.4
2017-04-30T02:49:01.407Z,1001.38
2017-04-30T02:49:41.922Z,1001.39
2017-04-30T02:50:22.438Z,1001.43
2017-04-30T02:51:02.951Z,1001.37
2017-04-30T02:51:43.462Z,1001.37
2017-04-30T02:52:23.987Z,1001.43
2017-04-30T02:53:04.535Z,1001.4
2017-04-30T02:53:45.031Z,1001.38
2017-04-30T02:54:25.558Z,1001.39
2017-04-30T02:55:06.067Z,1001.38
2017-04-30T02:55:46.576Z,1001.32
2017-04-30T02:56:27.118Z,1001.38
2017-04-30T02:57:07.642Z,1001.39
2017-04-30T02:57:48.168Z,1001.37
2017-04-30T02:58:28.687Z,1001.35
2017-04-30T02:59:09.201Z,1001.37
2017-04-30T02:59:49.748Z,1001.41
2017-04-30T03:00:30.278Z,1001.4
2017-04-30T03:01:10.792Z,1001.36
2017-04-30T03:01:51.307Z,1001.33
2017-04-30T03:02:31.822Z,1001.34
2017-04-30T03:03:12.344Z,1001.4
2017-04-30T03:03:52.870Z,1001.36
2017-04-30T03:04:33.387Z,1001.36
2017-04-30T03:05:13.913Z,1001.34
2017-04-30T03:05:54.438Z,1001.38
2017-04-30T03:06:34.951Z,1001.34
2017-04-30T03:07:15.471Z,1001.31
2017-04-30T03:07:56.002Z,1001.33
2017-04-30T03:08:36.518Z,1001.28
2017-04-30T03:09:17.039Z,1001.29
2017-04-30T03:09:57.554Z,1001.29
2017-04-30T03:10:38.074Z,1001.28
2017-04-30T03:11:18.595Z,1001.29
2017-04-30T03:11:59.124Z,1001.27
2017-04-30T03:12:39.640Z,1001.28
2017-04-30T03:13:20.162Z,1001.31
2017-04-30T03:14:00.679Z,1001.31
2017-04-30T03:14:41.200Z,1001.3
2017-04-30T03:15:21.719Z,1001.26
2017-04-30T03:16:02.237Z,1001.3
2017-04-30T03:16:42.766Z,1001.28
2017-04-30T03:17:23.274Z,1001.27
2017-04-30T03:18:03.787Z,1001.24
2017-04-30T03:18:44.307Z,1001.28
2017-04-30T03:19:24.833Z,1001.25
2017-04-30T03:20:05.354Z,1001.23
2017-04-30T03:20:45.883Z,1001.24
2017-04-30T03:21:26.405Z,1001.23
2017-04-30T03:22:06.915Z,1001.31
2017-04-30T03:22:47.450Z,1001.25
2017-04-30T03:23:27.977Z,1001.25
2017-04-30T03:24:08.504Z,1001.26
2017-04-30T03:24:49.043Z,1001.26
2017-04-30T03:25:29.559Z,1001.28
2017-04-30T03:26:10.080Z,1001.24
2017-04-30T03:26:50.588Z,1001.22
2017-04-30T03:27:31.057Z,1001.2
2017-04-30T03:28:11.543Z,1001.23
2017-04-30T03:28:52.068Z,1001.2
2017-04-30T03:29:32.601Z,1001.2
2017-04-30T03:30:13.109Z,1001.25
2017-04-30T03:30:53.578Z,1001.27
2017-04-30T03:31:34.106Z,1001.31
2017-04-30T03:32:14.640Z,1001.3
2017-04-30T03:32:55.169Z,1001.34
2017-04-30T03:33:35.688Z,1001.29
2017-04-30T03:34:16.199Z,1001.33
2017-04-30T03:34:56.719Z,1001.34
2017-04-30T03:35:37.242Z,1001.32
2017-04-30T03:36:17.760Z,1001.28
2017-04-30T03:36:58.285Z,1001.29
2017-04-30T03:37:38.797Z,1001.26
2017-04-30T03:38:19.319Z,1001.27
2017-04-30T03:38:59.840Z,1001.26
2017-04-30T03:39:40.364Z,1001.28
2017-04-30T03:40:20.890Z,1001.28
2017-04-30T03:41:01.407Z,1001.27
2017-04-30T03:41:41.925Z,1001.31
2017-04-30T03:42:22.446Z,1001.3
2017-04-30T03:43:02.965Z,1001.32
2017-04-30T03:43:43.483Z,1001.32
2017-04-30T03:44:24.003Z,1001.28
2017-04-30T03:45:04.541Z,1001.27
2017-04-30T03:45:45.052Z,1001.38
2017-04-30T03:46:25.567Z,1001.34
2017-04-30T03:47:06.092Z,1001.35
2017-04-30T03:47:46.619Z,1001.35
2017-04-30T03:48:27.126Z,1001.36
2017-04-30T03:49:07.632Z,1001.32
2017-04-30T03:49:48.141Z,1001.39
2017-04-30T03:50:28.665Z,1001.37
2017-04-30T03:51:09.189Z,1001.36
2017-04-30T03:51:49.697Z,1001.41
2017-04-30T03:52:30.218Z,1001.38
2017-04-30T03:53:10.742Z,1001.39
2017-04-30T03:53:51.253Z,1001.41
2017-04-30T03:54:31.763Z,1001.37
2017-04-30T03:55:12.285Z,1001.37
2017-04-30T03:55:52.805Z,1001.36
2017-04-30T03:56:33.296Z,1001.39
2017-04-30T03:57:13.811Z,1001.4
2017-04-30T03:57:54.309Z,1001.36
2017-04-30T03:58:34.818Z,1001.38
2017-04-30T03:59:15.394Z,1001.38
2017-04-30T03:59:55.901Z,1001.38
2017-04-30T04:00:36.414Z,1001.35
2017-04-30T04:01:16.952Z,1001.31
2017-04-30T04:01:57.475Z,1001.31
2017-04-30T04:02:37.991Z,1001.33
2017-04-30T04:03:18.510Z,1001.3
2017-04-30T04:03:59.033Z,1001.3
2017-04-30T04:04:39.532Z,1001.32
2017-04-30T04:05:20.042Z,1001.31
2017-04-30T04:06:00.553Z,1001.34
2017-04-30T04:06:41.058Z,1001.31
2017-04-30T04:07:21.582Z,1001.36
2017-04-30T04:08:02.093Z,1001.31
2017-04-30T04:08:42.598Z,1001.33
2017-04-30T04:09:23.112Z,1001.35
2017-04-30T04:10:03.639Z,1001.34
2017-04-30T04:10:44.159Z,1001.39
2017-04-30T04:11:24.670Z,1001.36
2017-04-30T04:12:05.191Z,1001.36
2017-04-30T04:12:45.707Z,1001.36
2017-04-30T04:14:38.809Z,1001.36
2017-04-30T04:15:19.328Z,1001.41
2017-04-30T04:15:59.836Z,1001.34
2017-04-30T04:16:40.348Z,1001.36
2017-04-30T04:17:20.861Z,1001.36
2017-04-30T04:18:01.384Z,1001.39
2017-04-30T04:18:41.890Z,1001.41
2017-04-30T04:19:22.409Z,1001.41
2017-04-30T04:20:02.909Z,1001.4
2017-04-30T04:20:43.423Z,1001.4
2017-04-30T04:21:23.939Z,1001.37
2017-04-30T04:22:04.477Z,1001.43
2017-04-30T04:22:44.988Z,1001.4
2017-04-30T04:23:25.515Z,1001.4
2017-04-30T04:24:06.030Z,1001.39
2017-04-30T04:24:46.535Z,1001.38
2017-04-30T04:25:27.042Z,1001.45
2017-04-30T04:26:07.559Z,1001.43
2017-04-30T04:26:48.080Z,1001.43
2017-04-30T04:27:28.598Z,1001.39
2017-04-30T04:28:09.127Z,1001.32
2017-04-30T04:28:49.640Z,1001.38
2017-04-30T04:29:30.161Z,1001.33
2017-04-30T04:30:10.674Z,1001.37
2017-04-30T04:30:51.202Z,1001.35
2017-04-30T04:31:31.721Z,1001.36
2017-04-30T04:32:12.243Z,1001.35
2017-04-30T04:32:52.758Z,1001.33
2017-04-30T04:33:33.290Z,1001.32
2017-04-30T04:34:13.806Z,1001.34
2017-04-30T04:34:54.393Z,1001.33
2017-04-30T04:35:34.855Z,1001.31
2017-04-30T04:36:15.379Z,1001.33
2017-04-30T04:36:55.889Z,1001.35
2017-04-30T04:37:36.400Z,1001.33
2017-04-30T04:38:16.909Z,1001.32
2017-04-30T04:38:57.427Z,1001.32
2017-04-30T04:39:37.953Z,1001.37
2017-04-30T04:40:18.494Z,1001.38
2017-04-30T04:40:58.986Z,1001.41
2017-04-30T04:41:39.507Z,1001.38
2017-04-30T04:42:20.021Z,1001.41
2017-04-30T04:43:00.537Z,1001.41
2017-04-30T04:43:41.055Z,1001.4
2017-04-30T04:44:21.597Z,1001.44
2017-04-30T04:45:02.110Z,1001.44
2017-04-30T04:45:42.633Z,1001.46
2017-04-30T04:46:23.144Z,1001.43
2017-04-30T04:47:03.641Z,1001.41
2017-04-30T04:47:44.164Z,1001.41
2017-04-30T04:48:24.675Z,1001.43
2017-04-30T04:49:05.212Z,1001.42
2017-04-30T04:49:45.728Z,1001.43
2017-04-30T04:50:26.251Z,1001.49
2017-04-30T04:51:06.749Z,1001.46
2017-04-30T04:51:47.287Z,1001.46
2017-04-30T04:52:27.799Z,1001.44
2017-04-30T04:53:08.326Z,1001.4
2017-04-30T04:53:48.837Z,1001.42
2017-04-30T04:54:29.353Z,1001.41
2017-04-30T04:55:09.851Z,1001.41
2017-04-30T04:55:50.366Z,1001.39
2017-04-30T04:56:30.900Z,1001.44
2017-04-30T04:57:11.361Z,1001.41
2017-04-30T04:57:51.837Z,1001.44
2017-04-30T04:58:32.350Z,1001.42
2017-04-30T04:59:12.873Z,1001.41
2017-04-30T04:59:53.395Z,1001.4
2017-04-30T05:00:33.894Z,1001.41
2017-04-30T05:01:14.419Z,1001.41
2017-04-30T05:01:54.915Z,1001.41
2017-04-30T05:02:35.430Z,1001.4
2017-04-30T05:03:16.002Z,1001.39
2017-04-30T05:03:56.534Z,1001.4
2017-04-30T05:04:37.049Z,1001.44
2017-04-30T05:05:17.563Z,1001.43
2017-04-30T05:05:58.086Z,1001.4
2017-04-30T05:06:38.614Z,1001.46
2017-04-30T05:07:19.139Z,1001.44
2017-04-30T05:07:59.658Z,1001.36
2017-04-30T05:08:40.181Z,1001.39
2017-04-30T05:09:20.691Z,1001.37
2017-04-30T05:10:01.208Z,1001.38
2017-04-30T05:10:41.776Z,1001.41
2017-04-30T05:11:22.329Z,1001.33
2017-04-30T05:12:02.828Z,1001.29
2017-04-30T05:12:43.355Z,1001.36
2017-04-30T05:13:23.873Z,1001.37
2017-04-30T05:14:04.394Z,1001.34
2017-04-30T05:14:44.916Z,1001.34
2017-04-30T05:15:25.459Z,1001.35
2017-04-30T05:16:05.974Z,1001.34
2017-04-30T05:16:46.510Z,1001.32
2017-04-30T05:17:27.023Z,1001.35
2017-04-30T05:18:07.542Z,1001.32
2017-04-30T05:18:48.051Z,1001.35
2017-04-30T05:19:28.583Z,1001.34
2017-04-30T05:20:09.407Z,1001.29
2017-04-30T05:20:49.857Z,1001.3
2017-04-30T05:21:30.342Z,1001.33
2017-04-30T05:22:10.855Z,1001.32
2017-04-30T05:22:51.391Z,1001.32
2017-04-30T05:23:31.911Z,1001.29
2017-04-30T05:24:12.424Z,1001.31
2017-04-30T05:24:52.943Z,1001.26
2017-04-30T05:25:33.458Z,1001.29
2017-04-30T05:26:13.971Z,1001.24
2017-04-30T05:26:54.480Z,1001.23
2017-04-30T05:27:34.993Z,1001.25
2017-04-30T05:28:15.523Z,1001.2
2017-04-30T05:28:56.017Z,1001.28
2017-04-30T05:29:36.511Z,1001.24
2017-04-30T05:30:17.118Z,1001.27
2017-04-30T05:30:57.643Z,1001.24
2017-04-30T05:31:38.173Z,1001.26
2017-04-30T05:32:18.679Z,1001.29
2017-04-30T05:32:59.190Z,1001.27
2017-04-30T05:33:39.705Z,1001.26
2017-04-30T05:34:20.220Z,1001.24
2017-04-30T05:35:00.678Z,1001.3
2017-04-30T05:35:41.196Z,1001.24
2017-04-30T05:36:21.663Z,1001.29
2017-04-30T05:37:02.177Z,1001.28
2017-04-30T05:37:42.636Z,1001.3
2017-04-30T05:38:23.133Z,1001.24
2017-04-30T05:39:03.599Z,1001.21
2017-04-30T05:39:44.124Z,1001.27
2017-04-30T05:40:24.650Z,1001.21
2017-04-30T05:41:05.159Z,1001.25
2017-04-30T05:41:45.690Z,1001.25
2017-04-30T05:42:26.204Z,1001.25
2017-04-30T05:43:06.710Z,1001.28
2017-04-30T05:43:47.228Z,1001.28
2017-04-30T05:44:27.754Z,1001.27
2017-04-30T05:45:08.275Z,1001.23
2017-04-30T05:45:48.791Z,1001.3
2017-04-30T05:46:29.297Z,1001.26
2017-04-30T05:47:09.809Z,1001.19
2017-04-30T05:47:50.325Z,1001.22
2017-04-30T05:48:30.842Z,1001.23
2017-04-30T05:49:11.375Z,1001.23
2017-04-30T05:49:51.887Z,1001.25
2017-04-30T05:50:32.412Z,1001.23
2017-04-30T05:51:12.927Z,1001.2
2017-04-30T05:51:53.447Z,1001.23
2017-04-30T05:52:33.961Z,1001.19
2017-04-30T05:53:14.518Z,1001.19
2017-04-30T05:53:54.997Z,1001.2
2017-04-30T05:54:35.517Z,1001.17
2017-04-30T05:55:16.044Z,1001.15
2017-04-30T05:55:56.562Z,1001.17
2017-04-30T05:56:37.076Z,1001.16
2017-04-30T05:57:17.588Z,1001.13
2017-04-30T05:57:58.092Z,1001.22
2017-04-30T05:58:38.616Z,1001.18
2017-04-30T05:59:19.135Z,1001.21
2017-04-30T05:59:59.662Z,1001.18
2017-04-30T06:00:40.185Z,1001.21
2017-04-30T06:01:20.707Z,1001.11
2017-04-30T06:02:01.196Z,1001.13
2017-04-30T06:02:41.711Z,1001.19
2017-04-30T06:03:22.228Z,1001.16
2017-04-30T06:04:02.742Z,1001.15
2017-04-30T06:04:43.298Z,1001.18
2017-04-30T06:05:23.874Z,1001.13
2017-04-30T06:06:04.377Z,1001.16
2017-04-30T06:06:44.902Z,1001.14
2017-04-30T06:07:25.486Z,1001.11
2017-04-30T06:08:05.942Z,1001.13
2017-04-30T06:08:46.457Z,1001.13
2017-04-30T06:09:26.982Z,1001.16
2017-04-30T06:10:07.502Z,1001.17
2017-04-30T06:10:48.023Z,1001.14
2017-04-30T06:11:28.530Z,1001.11
2017-04-30T06:12:09.066Z,1001.14
2017-04-30T06:12:49.552Z,1001.15
2017-04-30T06:13:30.086Z,1001.11
2017-04-30T06:14:10.693Z,1001.1
2017-04-30T06:14:51.226Z,1001.08
2017-04-30T06:15:31.744Z,1001.08
2017-04-30T06:16:12.257Z,1001.06
2017-04-30T06:16:52.772Z,1001.07
2017-04-30T06:17:33.291Z,1001.04
2017-04-30T06:18:13.825Z,1001.03
2017-04-30T06:18:54.338Z,1001.03
2017-04-30T06:19:34.809Z,1001.02
2017-04-30T06:20:15.300Z,1001
2017-04-30T06:20:55.815Z,1001.01
2017-04-30T06:21:36.325Z,1001
2017-04-30T06:22:16.828Z,1001.05
2017-04-30T06:22:57.341Z,1001.03
2017-04-30T06:23:37.876Z,1001.01
2017-04-30T06:24:18.412Z,1000.97
2017-04-30T06:24:58.931Z,1000.92
2017-04-30T06:25:39.439Z,1000.96
2017-04-30T06:26:19.965Z,1000.96
2017-04-30T06:27:00.500Z,1001.02
2017-04-30T06:27:41.033Z,1001
2017-04-30T06:28:21.560Z,1000.92
2017-04-30T06:29:02.045Z,1000.97
2017-04-30T06:29:42.523Z,1000.98
2017-04-30T06:30:23.046Z,1000.94
2017-04-30T06:31:03.571Z,1000.92
2017-04-30T06:31:44.094Z,1000.89
2017-04-30T06:32:24.608Z,1000.91
2017-04-30T06:33:05.118Z,1000.89
2017-04-30T06:33:45.604Z,1000.91
2017-04-30T06:34:26.111Z,1000.89
2017-04-30T06:35:06.596Z,1000.9
2017-04-30T06:35:47.117Z,1000.86
2017-04-30T06:36:27.642Z,1000.84
2017-04-30T06:37:08.159Z,1000.86
2017-04-30T06:37:48.689Z,1000.86
2017-04-30T06:38:29.202Z,1000.9
2017-04-30T06:39:09.713Z,1000.89
2017-04-30T06:39:50.235Z,1000.92
2017-04-30T06:40:30.752Z,1000.87
2017-04-30T06:41:11.356Z,1000.91
2017-04-30T06:41:51.798Z,1000.88
2017-04-30T06:42:32.300Z,1000.85
2017-04-30T06:43:12.815Z,1000.86
2017-04-30T06:43:53.354Z,1000.87
2017-04-30T06:44:33.924Z,1000.9
2017-04-30T06:45:14.477Z,1000.86
2017-04-30T06:45:55.010Z,1000.89
2017-04-30T06:46:35.537Z,1000.91
2017-04-30T06:47:16.048Z,1000.9
2017-04-30T06:47:56.565Z,1000.86
2017-04-30T06:48:37.096Z,1000.82
2017-04-30T06:49:17.593Z,1000.86
2017-04-30T06:49:58.126Z,1000.84
2017-04-30T06:50:38.635Z,1000.82
2017-04-30T06:51:19.136Z,1000.88
2017-04-30T06:51:59.646Z,1000.77
2017-04-30T06:52:40.140Z,1000.86
2017-04-30T06:53:20.653Z,1000.86
2017-04-30T06:54:01.164Z,1000.83
2017-04-30T06:54:41.708Z,1000.82
2017-04-30T06:55:22.202Z,1000.86
2017-04-30T06:56:02.707Z,1000.78
2017-04-30T06:56:43.229Z,1000.87
2017-04-30T06:57:23.743Z,1000.77
2017-04-30T06:58:04.267Z,1000.76
2017-04-30T06:58:44.787Z,1000.74
2017-04-30T06:59:25.309Z,1000.74
2017-04-30T07:00:05.837Z,1000.69
2017-04-30T07:00:46.366Z,1000.71
2017-04-30T07:01:26.883Z,1000.68
2017-04-30T07:02:07.409Z,1000.68
2017-04-30T07:02:47.933Z,1000.72
2017-04-30T07:03:28.457Z,1000.7
2017-04-30T07:04:08.992Z,1000.72
2017-04-30T07:04:49.530Z,1000.7
2017-04-30T07:05:30.064Z,1000.69
2017-04-30T07:06:10.585Z,1000.67
2017-04-30T07:06:51.110Z,1000.64
2017-04-30T07:07:31.630Z,1000.65
2017-04-30T07:08:12.159Z,1000.6
2017-04-30T07:08:52.684Z,1000.62
2017-04-30T07:09:33.200Z,1000.57
2017-04-30T07:10:13.716Z,1000.49
2017-04-30T07:10:54.239Z,1000.6
2017-04-30T07:11:34.758Z,1000.51
2017-04-30T07:12:15.286Z,1000.51
2017-04-30T07:12:55.802Z,1000.52
2017-04-30T07:13:36.328Z,1000.51
2017-04-30T07:14:16.863Z,1000.54
2017-04-30T07:14:57.399Z,1000.55
2017-04-30T07:15:37.964Z,1000.55
2017-04-30T07:16:18.429Z,1000.49
2017-04-30T07:16:58.953Z,1000.48
2017-04-30T07:17:39.476Z,1000.42
2017-04-30T07:18:20.011Z,1000.48
2017-04-30T07:19:00.526Z,1000.45
2017-04-30T07:19:41.075Z,1000.41
2017-04-30T07:20:21.519Z,1000.41
2017-04-30T07:21:02.069Z,1000.4
2017-04-30T07:21:42.527Z,1000.4
2017-04-30T07:22:23.028Z,1000.34
2017-04-30T07:23:03.630Z,1000.38
2017-04-30T07:23:44.070Z,1000.34
2017-04-30T07:24:24.601Z,1000.39
2017-04-30T07:25:05.072Z,1000.42
2017-04-30T07:25:45.544Z,1000.4
2017-04-30T07:26:26.042Z,1000.34
2017-04-30T07:27:06.524Z,1000.36
2017-04-30T07:27:47.055Z,1000.35
2017-04-30T07:28:27.534Z,1000.37
2017-04-30T07:29:08.037Z,1000.35
2017-04-30T07:29:48.494Z,1000.3
2017-04-30T07:30:28.970Z,1000.3
2017-04-30T07:31:09.456Z,1000.39
2017-04-30T07:31:49.968Z,1000.28
2017-04-30T07:32:30.461Z,1000.31
2017-04-30T07:33:10.939Z,1000.31
2017-04-30T07:33:51.436Z,1000.38
2017-04-30T07:34:31.978Z,1000.27
2017-04-30T07:35:12.486Z,1000.29
2017-04-30T07:35:52.964Z,1000.27
2017-04-30T07:36:33.565Z,1000.28
2017-04-30T07:37:14.077Z,1000.24
2017-04-30T07:37:54.578Z,1000.22
2017-04-30T07:38:35.300Z,1000.23
2017-04-30T07:39:15.616Z,1000.21
2017-04-30T07:39:56.110Z,1000.23
2017-04-30T07:40:36.620Z,1000.22
2017-04-30T07:41:17.168Z,1000.19
2017-04-30T07:41:57.739Z,1000.21
2017-04-30T07:42:38.172Z,1000.22
2017-04-30T07:43:18.694Z,1000.21
2017-04-30T07:43:59.217Z,1000.18
2017-04-30T07:44:39.682Z,1000.19
2017-04-30T07:45:20.170Z,1000.16
2017-04-30T07:46:00.673Z,1000.19
2017-04-30T07:46:41.152Z,1000.21
2017-04-30T07:47:21.911Z,1000.22
2017-04-30T07:48:02.863Z,1000.19
2017-04-30T07:48:43.350Z,1000.13
2017-04-30T07:49:23.813Z,1000.12
2017-04-30T07:50:04.323Z,1000.09
2017-04-30T07:50:44.826Z,1000.01
2017-04-30T07:51:25.328Z,1000.07
2017-04-30T07:52:05.809Z,1000.02
2017-04-30T07:52:46.331Z,1000.02
2017-04-30T07:53:26.828Z,999.99
2017-04-30T07:54:07.334Z,1000.03
2017-04-30T07:54:47.844Z,1000.11
2017-04-30T07:55:28.381Z,1000.01
2017-04-30T07:56:09.120Z,1000.05
2017-04-30T07:56:49.964Z,999.98
2017-04-30T07:57:30.428Z,1000.02
2017-04-30T07:58:10.951Z,999.98
2017-04-30T07:58:51.565Z,1000.11
2017-04-30T07:59:32.091Z,1000.02
2017-04-30T08:00:12.614Z,1000.07
2017-04-30T08:00:53.169Z,1000
2017-04-30T08:01:33.629Z,999.97
2017-04-30T08:02:14.134Z,1000.04
2017-04-30T08:02:54.613Z,1000
2017-04-30T08:03:35.108Z,999.97
2017-04-30T08:04:15.619Z,999.92
2017-04-30T08:04:56.540Z,999.92
2017-04-30T08:05:37.027Z,999.93
2017-04-30T08:06:17.402Z,999.91
2017-04-30T08:06:58.295Z,999.9
2017-04-30T08:07:38.852Z,999.87
2017-04-30T08:08:19.346Z,999.86
2017-04-30T08:08:59.857Z,999.88
2017-04-30T08:09:40.397Z,999.9
2017-04-30T08:10:20.883Z,999.84
2017-04-30T08:11:01.718Z,999.85
2017-04-30T08:11:42.378Z,999.84
2017-04-30T08:12:22.911Z,999.87
2017-04-30T08:13:03.452Z,999.83
2017-04-30T08:13:43.937Z,999.89